Time;durP1;ratioP1;P1;durP2;ratioP2;P2;SDS_P1;SDS_P2;PMS_P1;PMS_P2;Temp;Humidity;BMP_temperature;BMP_pressure;BME280_temperature;BME280_humidity;BME280_pressure;Samples;Min_cycle;Max_cycle;Signal;HPM_P1;HPM_P2
2022/06/01 00:00:51;;;;;;;;;;;;;;;20.63;43.85;101411.41;6055143;23;19958;-81
2022/06/01 00:03:18;;;;;;;;;;;;;;;20.63;43.85;101403.53;6054831;23;19910;-81
2022/06/01 00:05:46;;;;;;;;;;;;;;;20.63;43.86;101405.31;6059879;23;19910;-81
2022/06/01 00:08:18;;;;;;;;;;;;;;;20.63;43.89;101406.16;6031761;23;19921;-81
2022/06/01 00:10:45;;;;;;;;;;;;;;;20.63;43.86;101408.78;6026487;23;19910;-81
2022/06/01 00:13:12;;;;;;;;;;;;;;;20.63;43.97;101405.31;6025631;23;19910;-81
2022/06/01 00:15:40;;;;;;;;;;;;;;;20.63;43.96;101405.31;6025621;23;20232;-81
2022/06/01 00:18:15;;;;;;;;;;;;;;;20.63;44.01;101406.16;6024830;23;19917;-81
2022/06/01 00:20:43;;;;;;;;;;;;;;;20.62;44.05;101407.06;6094821;23;19918;-81
2022/06/01 00:23:21;;;;;;;;;;;;;;;20.62;43.93;101406.16;6065968;23;19962;-82
2022/06/01 00:26:04;;;;;;;;;;;;;;;20.61;44.02;101405.31;6062252;23;20128;-81
2022/06/01 00:28:29;;;;;;;;;;;;;;;20.61;44.15;101410.53;6032189;23;19910;-81
2022/06/01 00:30:56;;;;;;;;;;;;;;;20.61;44.06;101404.47;6060148;23;19949;-80
2022/06/01 00:33:22;;;;;;;;;;;;;;;20.61;44.03;101407.06;6057487;23;19917;-81
2022/06/01 00:35:49;;;;;;;;;;;;;;;20.59;44.09;101403.63;6056714;23;19909;-81
2022/06/01 00:38:16;;;;;;;;;;;;;;;20.60;44.08;101403.59;6053245;23;19967;-81
2022/06/01 00:40:42;;;;;;;;;;;;;;;20.60;44.02;101408.81;6051221;23;20379;-81
2022/06/01 00:43:19;;;;;;;;;;;;;;;20.60;44.06;101403.59;6051338;23;19918;-81
2022/06/01 00:45:45;;;;;;;;;;;;;;;20.60;44.31;101400.09;6075330;23;19920;-80
2022/06/01 00:48:10;;;;;;;;;;;;;;;20.60;44.22;101408.81;6039490;23;19914;-80
2022/06/01 00:50:39;;;;;;;;;;;;;;;20.58;44.26;101407.97;6084271;23;19917;-80
2022/06/01 00:53:04;;;;;;;;;;;;;;;20.60;44.30;101400.09;6080648;23;19945;-80
2022/06/01 00:55:34;;;;;;;;;;;;;;;20.59;44.24;101404.47;6080895;23;19917;-80
2022/06/01 00:58:03;;;;;;;;;;;;;;;20.58;44.38;101392.28;6108834;23;19937;-82
2022/06/01 01:00:32;;;;;;;;;;;;;;;20.58;44.23;101394.03;6108478;23;19909;-80
2022/06/01 01:03:00;;;;;;;;;;;;;;;20.58;44.39;101396.63;6084802;23;19909;-80
2022/06/01 01:05:27;;;;;;;;;;;;;;;20.58;44.39;101397.53;6146652;23;19924;-80
2022/06/01 01:07:53;;;;;;;;;;;;;;;20.57;44.26;101398.38;6119308;23;19912;-80
2022/06/01 01:10:18;;;;;;;;;;;;;;;20.57;44.46;101397.50;6118777;23;20249;-81
2022/06/01 01:12:57;;;;;;;;;;;;;;;20.57;44.46;101393.16;6142059;23;19932;-81
2022/06/01 01:15:51;;;;;;;;;;;;;;;20.57;44.37;101398.38;6118128;23;19956;-81
2022/06/01 01:18:19;;;;;;;;;;;;;;;20.56;44.40;101399.25;6142149;23;19939;-81
2022/06/01 01:21:04;;;;;;;;;;;;;;;20.57;44.49;101400.13;6142692;23;20253;-81
2022/06/01 01:23:31;;;;;;;;;;;;;;;20.56;44.48;101394.03;6141029;23;19952;-81
2022/06/01 01:25:56;;;;;;;;;;;;;;;20.57;44.47;101389.66;6142834;23;19916;-81
2022/06/01 01:28:21;;;;;;;;;;;;;;;20.57;44.41;101394.88;6167982;23;19908;-81
2022/06/01 01:30:50;;;;;;;;;;;;;;;20.56;44.54;101388.81;6142627;23;19913;-81
2022/06/01 01:33:20;;;;;;;;;;;;;;;20.55;44.42;101394.91;6141849;23;19908;-81
2022/06/01 01:35:47;;;;;;;;;;;;;;;20.54;44.64;101386.19;6141456;23;19951;-81
2022/06/01 01:38:32;;;;;;;;;;;;;;;20.55;44.57;101384.44;6168417;23;19962;-81
2022/06/01 01:41:01;;;;;;;;;;;;;;;20.54;44.62;101383.59;6141950;23;19913;-81
2022/06/01 01:43:26;;;;;;;;;;;;;;;20.54;44.51;101378.34;6131949;23;19921;-90
2022/06/01 01:45:52;;;;;;;;;;;;;;;20.54;44.61;101382.72;6131441;23;19919;-89
2022/06/01 01:48:17;;;;;;;;;;;;;;;20.53;44.57;101373.13;6106955;23;20289;-88
2022/06/01 01:50:43;;;;;;;;;;;;;;;20.53;44.52;101384.47;6107088;23;19913;-90
2022/06/01 01:53:08;;;;;;;;;;;;;;;20.54;44.63;101382.72;6131989;23;19963;-88
2022/06/01 01:55:49;;;;;;;;;;;;;;;20.52;44.63;101371.41;6157975;23;20223;-88
2022/06/01 01:58:19;;;;;;;;;;;;;;;20.51;44.56;101373.19;6132313;23;19987;-90
2022/06/01 02:00:48;;;;;;;;;;;;;;;20.50;44.76;101376.66;6132425;23;19913;-89
2022/06/01 02:03:28;;;;;;;;;;;;;;;20.50;44.67;101376.66;6158217;23;19908;-90
2022/06/01 02:06:07;;;;;;;;;;;;;;;20.50;44.66;101373.19;6131642;23;19930;-89
2022/06/01 02:08:35;;;;;;;;;;;;;;;20.49;44.76;101367.09;6131722;23;19908;-90
2022/06/01 02:14:16;;;;;;;;;;;;;;;20.49;44.82;101368.81;6158329;23;19915;-89
2022/06/01 02:16:45;;;;;;;;;;;;;;;20.48;44.63;101365.34;6157774;23;20218;-89
2022/06/01 02:19:18;;;;;;;;;;;;;;;20.48;44.81;101367.13;6131717;23;19915;-90
2022/06/01 02:21:43;;;;;;;;;;;;;;;20.47;44.71;101362.75;6158398;23;19913;-91
2022/06/01 02:24:09;;;;;;;;;;;;;;;20.46;44.79;101361.91;6107943;23;19928;-90
2022/06/01 02:26:34;;;;;;;;;;;;;;;20.46;44.84;101358.44;6157858;23;19931;-91
2022/06/01 02:29:07;;;;;;;;;;;;;;;20.47;44.78;101354.91;6134218;23;19966;-89
2022/06/01 02:31:33;;;;;;;;;;;;;;;20.46;44.71;101353.19;6134277;23;19916;-88
2022/06/01 02:33:59;;;;;;;;;;;;;;;20.44;44.67;101353.22;6138052;23;19909;-89
2022/06/01 02:36:26;;;;;;;;;;;;;;;20.46;44.70;101361.03;6114991;23;20034;-90
2022/06/01 02:38:52;;;;;;;;;;;;;;;20.44;44.70;101362.81;6136929;23;19913;-90
2022/06/01 02:44:01;;;;;;;;;;;;;;;20.43;44.87;101361.94;6137743;23;19931;-90
2022/06/01 02:46:27;;;;;;;;;;;;;;;20.43;44.76;101364.56;6132050;23;19987;-90
2022/06/01 02:48:52;;;;;;;;;;;;;;;20.43;44.83;101361.09;6131870;23;19909;-89
2022/06/01 02:51:18;;;;;;;;;;;;;;;20.43;44.76;101351.50;6131779;23;20334;-89
2022/06/01 02:53:47;;;;;;;;;;;;;;;20.42;44.79;101354.13;6132547;23;20229;-89
2022/06/01 02:56:13;;;;;;;;;;;;;;;20.42;44.81;101354.13;6131847;23;19987;-91
2022/06/01 02:58:38;;;;;;;;;;;;;;;20.41;44.78;101358.50;6112224;23;19921;-88
2022/06/01 03:01:04;;;;;;;;;;;;;;;20.41;44.81;101350.66;6126901;23;19948;-91
2022/06/01 03:03:30;;;;;;;;;;;;;;;20.43;44.90;101355.88;6110725;23;19947;-89
2022/06/01 03:05:55;;;;;;;;;;;;;;;20.41;44.86;101357.63;6107715;23;19920;-90
2022/06/01 03:08:21;;;;;;;;;;;;;;;20.40;44.80;101348.91;6131870;23;19909;-89
2022/06/01 03:10:49;;;;;;;;;;;;;;;20.41;44.81;101361.09;6131508;23;20230;-88
2022/06/01 03:13:15;;;;;;;;;;;;;;;20.41;44.87;101352.41;6131578;23;19915;-88
2022/06/01 03:15:40;;;;;;;;;;;;;;;20.39;44.88;101357.63;6131646;23;19983;-89
2022/06/01 03:18:06;;;;;;;;;;;;;;;20.40;44.74;101355.88;6132940;23;20388;-89
2022/06/01 03:20:33;;;;;;;;;;;;;;;20.40;44.85;101361.13;6157584;23;20214;-88
2022/06/01 03:22:59;;;;;;;;;;;;;;;20.39;44.90;101365.47;6131474;23;20035;-88
2022/06/01 03:25:25;;;;;;;;;;;;;;;20.40;44.92;101363.72;6131336;23;20260;-88
2022/06/01 03:27:51;;;;;;;;;;;;;;;20.40;44.82;101368.94;6108044;23;19917;-88
2022/06/01 03:30:17;;;;;;;;;;;;;;;20.40;44.82;101368.94;6157238;23;19916;-88
2022/06/01 03:32:43;;;;;;;;;;;;;;;20.38;44.90;101368.97;6131341;23;19912;-89
2022/06/01 03:35:08;;;;;;;;;;;;;;;20.39;44.87;101367.25;6131451;23;19909;-88
2022/06/01 03:37:34;;;;;;;;;;;;;;;20.38;44.86;101360.25;6107281;23;19912;-89
2022/06/01 03:39:59;;;;;;;;;;;;;;;20.38;44.91;101368.09;6131234;23;19912;-89
2022/06/01 03:42:24;;;;;;;;;;;;;;;20.37;44.83;101366.41;6131018;23;19948;-89
2022/06/01 03:47:33;;;;;;;;;;;;;;;20.38;44.97;101370.72;6135529;23;19919;-89
2022/06/01 03:50:00;;;;;;;;;;;;;;;20.38;44.95;101358.50;6131218;23;19929;-89
2022/06/01 03:52:25;;;;;;;;;;;;;;;20.39;44.96;101357.63;6108608;23;19913;-89
2022/06/01 03:54:51;;;;;;;;;;;;;;;20.39;45.00;101362.88;6133241;23;19920;-89
2022/06/01 03:57:16;;;;;;;;;;;;;;;20.39;44.81;101367.25;6108545;23;19917;-88
2022/06/01 03:59:41;;;;;;;;;;;;;;;20.39;44.86;101367.25;6108742;23;19918;-88
2022/06/01 04:02:07;;;;;;;;;;;;;;;20.38;44.90;101366.34;6132518;23;19916;-88
2022/06/01 04:04:32;;;;;;;;;;;;;;;20.37;44.95;101364.63;6132936;23;19915;-89
2022/06/01 04:06:58;;;;;;;;;;;;;;;20.40;44.66;101366.34;6133106;23;20245;-89
2022/06/01 04:09:24;;;;;;;;;;;;;;;20.41;44.91;101362.84;6108706;23;20355;-90
2022/06/01 04:11:51;;;;;;;;;;;;;;;20.41;44.82;101365.47;6108896;23;19913;-88
2022/06/01 04:14:17;;;;;;;;;;;;;;;20.44;44.91;101370.66;6157747;23;19915;-89
2022/06/01 04:16:42;;;;;;;;;;;;;;;20.44;44.85;101368.03;6133145;23;19913;-89
2022/06/01 04:19:07;;;;;;;;;;;;;;;20.45;44.91;101369.78;6108470;23;19917;-90
2022/06/01 04:21:35;;;;;;;;;;;;;;;20.45;44.88;101375.88;6132571;23;20325;-89
2022/06/01 04:24:02;;;;;;;;;;;;;;;20.45;44.90;101375.88;6159201;23;19913;-88
2022/06/01 04:26:27;;;;;;;;;;;;;;;20.47;44.81;101378.44;6132941;23;19963;-89
2022/06/01 04:28:52;;;;;;;;;;;;;;;20.46;44.77;101376.72;6133018;23;19910;-88
2022/06/01 04:31:18;;;;;;;;;;;;;;;20.49;44.90;101374.06;6108984;23;19913;-87
2022/06/01 04:33:43;;;;;;;;;;;;;;;20.48;44.88;101373.19;6108224;23;19920;-86
2022/06/01 04:36:09;;;;;;;;;;;;;;;20.50;44.87;101373.19;6132456;23;20365;-87
2022/06/01 04:38:34;;;;;;;;;;;;;;;20.51;44.72;101370.56;6132714;23;20276;-87
2022/06/01 04:40:59;;;;;;;;;;;;;;;20.50;44.81;101368.81;6132256;23;19963;-86
2022/06/01 04:43:24;;;;;;;;;;;;;;;20.49;44.91;101367.09;6132321;23;19925;-87
2022/06/01 04:45:50;;;;;;;;;;;;;;;20.48;44.85;101367.97;6132639;23;19924;-86
2022/06/01 04:48:16;;;;;;;;;;;;;;;20.47;44.95;101363.63;6132493;23;20233;-85
2022/06/01 04:50:44;;;;;;;;;;;;;;;20.46;44.97;101367.13;6132067;23;19912;-85
2022/06/01 04:53:10;;;;;;;;;;;;;;;20.59;44.73;101367.88;6132398;23;19909;-85
2022/06/01 04:55:35;;;;;;;;;;;;;;;20.67;44.67;101368.63;6132081;23;20281;-86
2022/06/01 04:58:01;;;;;;;;;;;;;;;20.79;44.49;101370.19;6132320;23;19940;-86
2022/06/01 05:00:26;;;;;;;;;;;;;;;20.89;44.39;101369.19;6132249;23;19909;-88
2022/06/01 05:02:51;;;;;;;;;;;;;;;21.00;44.05;101369.00;6131963;23;19996;-86
2022/06/01 05:05:17;;;;;;;;;;;;;;;21.00;44.08;101368.16;6158350;23;19915;-85
2022/06/01 05:07:42;;;;;;;;;;;;;;;21.12;44.07;101368.84;6130389;23;19913;-86
2022/06/01 05:10:07;;;;;;;;;;;;;;;21.24;43.87;101372.13;6106890;23;19913;-86
2022/06/01 05:12:34;;;;;;;;;;;;;;;21.32;43.95;101372.88;6131359;23;20330;-88
2022/06/01 05:14:59;;;;;;;;;;;;;;;21.39;43.73;101377.13;6132340;23;20305;-86
2022/06/01 05:17:25;;;;;;;;;;;;;;;21.43;43.57;101372.72;6107101;23;19951;-87
2022/06/01 05:19:50;;;;;;;;;;;;;;;21.48;43.57;101384.84;6133325;23;20329;-88
2022/06/01 05:22:15;;;;;;;;;;;;;;;21.55;43.60;101383.84;6133748;23;19920;-86
2022/06/01 05:24:43;;;;;;;;;;;;;;;21.58;43.34;101380.31;6132319;23;19920;-87
2022/06/01 05:27:09;;;;;;;;;;;;;;;21.64;43.15;101392.44;6131759;23;19912;-86
2022/06/01 05:29:34;;;;;;;;;;;;;;;21.70;42.99;101389.69;6131743;23;19908;-86
2022/06/01 05:32:00;;;;;;;;;;;;;;;21.70;42.91;101393.19;6131837;23;19908;-86
2022/06/01 05:34:25;;;;;;;;;;;;;;;21.75;42.91;101390.47;6158084;23;20206;-86
2022/06/01 05:36:51;;;;;;;;;;;;;;;21.79;42.82;101397.38;6106987;23;19917;-82
2022/06/01 05:39:16;;;;;;;;;;;;;;;21.86;42.78;101400.75;6157445;23;20340;-82
2022/06/01 05:41:41;;;;;;;;;;;;;;;21.84;42.58;101395.56;6131023;23;19947;-82
2022/06/01 05:44:09;;;;;;;;;;;;;;;21.92;42.73;101398.88;6130676;23;19917;-82
2022/06/01 05:46:37;;;;;;;;;;;;;;;21.97;42.62;101398.78;6106984;23;19951;-82
2022/06/01 05:49:06;;;;;;;;;;;;;;;22.03;42.62;101401.31;6131083;23;19913;-79
2022/06/01 05:51:31;;;;;;;;;;;;;;;22.11;42.41;101403.78;6157426;23;19920;-82
2022/06/01 05:53:56;;;;;;;;;;;;;;;22.14;41.90;101401.94;6155656;23;19900;-81
2022/06/01 05:56:22;;;;;;;;;;;;;;;22.35;41.87;101398.06;6157212;23;19915;-81
2022/06/01 05:58:48;;;;;;;;;;;;;;;22.54;41.45;101397.72;6131593;23;19967;-80
2022/06/01 06:01:13;;;;;;;;;;;;;;;22.66;40.97;101401.81;6131927;23;19917;-81
2022/06/01 06:03:39;;;;;;;;;;;;;;;22.24;41.66;101412.31;6131127;23;19991;-80
2022/06/01 06:06:14;;;;;;;;;;;;;;;22.01;41.90;101413.56;6106451;23;19913;-80
2022/06/01 06:08:41;;;;;;;;;;;;;;;21.77;42.11;101417.50;6130837;23;19959;-80
2022/06/01 06:11:09;;;;;;;;;;;;;;;21.63;42.42;101411.66;6131039;23;19916;-81
2022/06/01 06:13:35;;;;;;;;;;;;;;;21.53;42.65;101422.28;6131028;23;19909;-82
2022/06/01 06:16:00;;;;;;;;;;;;;;;21.45;42.73;101413.72;6131395;23;19912;-82
2022/06/01 06:18:26;;;;;;;;;;;;;;;21.42;43.07;101415.50;6155599;23;19909;-82
2022/06/01 06:20:51;;;;;;;;;;;;;;;21.36;43.12;101419.03;6130613;23;19917;-82
2022/06/01 06:23:16;;;;;;;;;;;;;;;21.32;43.21;101427.84;6132947;23;19908;-82
2022/06/01 06:25:42;;;;;;;;;;;;;;;21.28;43.36;101424.41;6131735;23;19920;-82
2022/06/01 06:28:07;;;;;;;;;;;;;;;21.36;43.55;101424.28;6155527;23;19908;-82
2022/06/01 06:30:32;;;;;;;;;;;;;;;22.57;41.15;101429.97;6157258;23;19908;-82
2022/06/01 06:32:58;;;;;;;;;;;;;;;22.99;40.02;101419.44;6131119;23;19944;-81
2022/06/01 06:35:24;;;;;;;;;;;;;;;23.22;39.54;101430.31;6131012;23;20392;-81
2022/06/01 06:37:50;;;;;;;;;;;;;;;23.38;39.35;101429.91;6106537;23;20219;-81
2022/06/01 06:40:15;;;;;;;;;;;;;;;23.54;39.13;101432.13;6156889;23;19916;-81
2022/06/01 06:42:40;;;;;;;;;;;;;;;23.61;38.54;101442.47;6157017;23;19919;-81
2022/06/01 06:45:06;;;;;;;;;;;;;;;23.70;38.63;101432.63;6131687;23;19921;-81
2022/06/01 06:47:34;;;;;;;;;;;;;;;23.74;38.33;101439.53;6156900;23;19941;-81
2022/06/01 06:50:00;;;;;;;;;;;;;;;23.81;38.60;101431.47;6156973;23;19901;-81
2022/06/01 06:52:26;;;;;;;;;;;;;;;23.87;38.14;101434.88;6130743;23;19920;-81
2022/06/01 06:54:51;;;;;;;;;;;;;;;23.71;38.46;101437.81;6156761;23;19919;-81
2022/06/01 06:57:17;;;;;;;;;;;;;;;22.95;39.41;101445.75;6130666;23;19913;-81
2022/06/01 06:59:42;;;;;;;;;;;;;;;23.52;39.18;101447.09;6106038;23;19912;-81
2022/06/01 07:02:07;;;;;;;;;;;;;;;23.72;38.54;101449.22;6156788;23;19924;-81
2022/06/01 07:04:35;;;;;;;;;;;;;;;23.76;38.02;101448.28;6156965;23;19913;-81
2022/06/01 07:07:00;;;;;;;;;;;;;;;22.84;39.52;101458.25;6131090;23;19995;-82
2022/06/01 07:09:25;;;;;;;;;;;;;;;22.44;40.32;101470.44;6130836;23;20313;-82
2022/06/01 07:11:50;;;;;;;;;;;;;;;22.94;40.23;101463.28;6130842;23;19920;-84
2022/06/01 07:14:16;;;;;;;;;;;;;;;23.32;39.04;101468.56;6106772;23;19913;-83
2022/06/01 07:16:41;;;;;;;;;;;;;;;23.37;38.89;101458.84;6131210;23;20360;-84
2022/06/01 07:19:08;;;;;;;;;;;;;;;22.86;39.71;101478.31;6106349;23;19913;-84
2022/06/01 07:21:36;;;;;;;;;;;;;;;22.92;39.62;101469.47;6107059;23;19920;-84
2022/06/01 07:24:02;;;;;;;;;;;;;;;23.07;39.66;101471.78;6131307;23;19955;-84
2022/06/01 07:26:29;;;;;;;;;;;;;;;23.09;39.50;101469.97;6132286;23;19908;-84
2022/06/01 07:28:54;;;;;;;;;;;;;;;23.05;39.47;101470.94;6158858;23;19915;-79
2022/06/01 07:31:26;;;;;;;;;;;;;;;22.97;39.65;101476.34;6158565;23;19940;-79
2022/06/01 07:33:51;;;;;;;;;;;;;;;22.94;40.02;101478.16;6132402;23;19909;-79
2022/06/01 07:36:17;;;;;;;;;;;;;;;22.59;40.35;101483.25;6131901;23;19908;-79
2022/06/01 07:44:10;;;;;;;;;;;;;;;22.74;40.15;101494.34;6158438;23;19923;-80
2022/06/01 07:46:36;;;;;;;;;;;;;;;22.74;40.28;101483.84;6132585;23;20274;-80
2022/06/01 07:49:02;;;;;;;;;;;;;;;22.63;40.34;101491.94;6132327;23;19912;-79
2022/06/01 07:51:28;;;;;;;;;;;;;;;22.49;40.70;101486.94;6158171;23;20043;-79
2022/06/01 07:53:53;;;;;;;;;;;;;;;22.40;40.68;101484.50;6132160;23;19913;-79
2022/06/01 07:56:18;;;;;;;;;;;;;;;22.30;41.04;101493.47;6132280;23;19912;-79
2022/06/01 07:58:43;;;;;;;;;;;;;;;22.42;40.94;101498.47;6132031;23;19915;-79
2022/06/01 08:01:09;;;;;;;;;;;;;;;22.47;40.70;101494.00;6107618;23;20249;-79
2022/06/01 08:03:35;;;;;;;;;;;;;;;22.45;40.80;101495.81;6132009;23;19912;-80
2022/06/01 08:06:01;;;;;;;;;;;;;;;22.21;41.09;101494.47;6158288;23;19912;-79
2022/06/01 08:08:26;;;;;;;;;;;;;;;22.27;41.06;101502.22;6158641;23;19912;-79
2022/06/01 08:10:51;;;;;;;;;;;;;;;22.32;41.02;101508.28;6132422;23;19913;-80
2022/06/01 08:13:17;;;;;;;;;;;;;;;22.11;41.33;101503.41;6158270;23;19908;-80
2022/06/01 08:15:47;;;;;;;;;;;;;;;22.06;41.29;101494.72;6156614;23;19908;-79
2022/06/01 08:18:15;;;;;;;;;;;;;;;21.98;41.61;101503.59;6158343;23;19909;-80
2022/06/01 08:20:42;;;;;;;;;;;;;;;21.93;41.76;101501.97;6131923;23;20350;-80
2022/06/01 08:23:07;;;;;;;;;;;;;;;22.09;41.46;101494.69;6132126;23;19984;-80
2022/06/01 08:25:33;;;;;;;;;;;;;;;22.22;41.41;101501.47;6157888;23;20392;-79
2022/06/01 08:27:58;;;;;;;;;;;;;;;22.25;41.07;101508.41;6157866;23;19913;-79
2022/06/01 08:30:25;;;;;;;;;;;;;;;22.22;41.19;101492.72;6131843;23;19931;-79
2022/06/01 08:32:52;;;;;;;;;;;;;;;22.06;41.31;101507.84;6157819;23;19947;-80
2022/06/01 08:35:19;;;;;;;;;;;;;;;22.13;41.56;101501.59;6132343;23;20030;-79
2022/06/01 08:37:45;;;;;;;;;;;;;;;22.01;41.62;101507.06;6131550;23;19909;-79
2022/06/01 08:40:11;;;;;;;;;;;;;;;21.91;41.63;101514.22;6132040;23;19967;-79
2022/06/01 08:42:37;;;;;;;;;;;;;;;21.85;41.80;101515.19;6157829;23;19913;-79
2022/06/01 08:45:06;;;;;;;;;;;;;;;21.97;41.64;101515.00;6131396;23;19916;-79
2022/06/01 08:47:33;;;;;;;;;;;;;;;22.07;41.63;101515.69;6131560;23;19908;-79
2022/06/01 08:50:02;;;;;;;;;;;;;;;22.10;41.50;101513.03;6131744;23;19932;-79
2022/06/01 08:52:28;;;;;;;;;;;;;;;22.12;41.42;101507.72;6131890;23;20262;-79
2022/06/01 08:54:53;;;;;;;;;;;;;;;22.04;41.41;101512.25;6131476;23;20373;-78
2022/06/01 08:57:24;;;;;;;;;;;;;;;21.94;41.61;101515.03;6158196;23;19916;-79
2022/06/01 09:00:09;;;;;;;;;;;;;;;22.00;41.63;101511.44;6131632;23;19939;-79
2022/06/01 09:02:50;;;;;;;;;;;;;;;21.92;41.83;101518.56;6156791;23;19916;-79
2022/06/01 09:05:15;;;;;;;;;;;;;;;21.83;41.86;101516.97;6131788;23;19909;-80
2022/06/01 09:07:57;;;;;;;;;;;;;;;21.92;41.74;101515.94;6159265;23;19959;-79
2022/06/01 09:10:40;;;;;;;;;;;;;;;21.85;42.01;101523.03;6157863;23;20341;-79
2022/06/01 09:13:12;;;;;;;;;;;;;;;21.83;42.07;101521.34;6159455;23;19944;-78
2022/06/01 09:15:50;;;;;;;;;;;;;;;21.85;41.94;101516.94;6160190;23;20020;-79
2022/06/01 09:18:18;;;;;;;;;;;;;;;21.90;41.91;101525.59;6159778;23;19932;-78
2022/06/01 09:23:27;;;;;;;;;;;;;;;21.80;42.08;101535.38;6157903;23;19919;-79
2022/06/01 09:25:54;;;;;;;;;;;;;;;21.79;41.98;101536.25;6157541;23;19936;-79
2022/06/01 09:28:21;;;;;;;;;;;;;;;21.82;42.16;101533.59;6157484;23;20234;-79
2022/06/01 09:30:54;;;;;;;;;;;;;;;21.84;42.16;101542.28;6157381;23;20369;-79
2022/06/01 09:33:28;;;;;;;;;;;;;;;21.81;41.89;101544.94;6157202;23;19983;-79
2022/06/01 09:36:00;;;;;;;;;;;;;;;21.85;42.08;101544.00;6131044;23;20352;-79
2022/06/01 09:38:43;;;;;;;;;;;;;;;21.87;41.80;101538.75;6131152;23;19915;-78
2022/06/01 09:41:09;;;;;;;;;;;;;;;21.86;41.81;101544.88;6131348;23;20267;-79
2022/06/01 09:43:37;;;;;;;;;;;;;;;21.80;42.04;101544.97;6157327;23;19924;-79
2022/06/01 09:46:02;;;;;;;;;;;;;;;21.81;41.84;101542.31;6131146;23;20324;-79
2022/06/01 09:48:32;;;;;;;;;;;;;;;21.82;41.96;101536.22;6106389;23;19959;-80
2022/06/01 09:51:03;;;;;;;;;;;;;;;21.80;42.17;101535.38;6131635;23;20317;-79
2022/06/01 09:53:36;;;;;;;;;;;;;;;21.77;41.90;101538.03;6157157;23;19908;-79
2022/06/01 09:56:02;;;;;;;;;;;;;;;21.77;41.79;101538.03;6130968;23;19915;-79
2022/06/01 10:06:50;;;;;;;;;;;;;;;21.73;42.04;101537.22;6157003;23;19916;-78
2022/06/01 10:09:20;;;;;;;;;;;;;;;21.74;42.26;101548.56;6130744;23;19909;-79
2022/06/01 10:11:46;;;;;;;;;;;;;;;21.75;42.00;101538.06;6157231;23;19909;-79
2022/06/01 10:14:16;;;;;;;;;;;;;;;21.73;41.77;101537.22;6156305;23;19920;-79
2022/06/01 10:16:51;;;;;;;;;;;;;;;21.74;42.05;101545.94;6157137;23;19909;-81
2022/06/01 10:19:20;;;;;;;;;;;;;;;21.75;42.15;101545.94;6157137;23;19916;-80
2022/06/01 10:21:51;;;;;;;;;;;;;;;21.76;42.04;101555.50;6130985;23;19935;-77
2022/06/01 10:24:20;;;;;;;;;;;;;;;21.76;42.01;101554.63;6130795;23;19932;-79
2022/06/01 10:26:59;;;;;;;;;;;;;;;21.75;42.09;101566.00;6131369;23;19909;-78
2022/06/01 10:29:44;;;;;;;;;;;;;;;21.71;42.03;101565.19;6130652;23;19909;-78
2022/06/01 10:32:14;;;;;;;;;;;;;;;21.70;42.05;101570.44;6129929;23;19915;-78
2022/06/01 10:34:54;;;;;;;;;;;;;;;21.69;42.22;101579.22;6156918;23;20218;-79
2022/06/01 10:37:29;;;;;;;;;;;;;;;21.65;42.36;101577.53;6130559;23;19930;-79
2022/06/01 10:39:59;;;;;;;;;;;;;;;21.62;42.31;101586.25;6130728;23;19909;-79
2022/06/01 10:45:15;;;;;;;;;;;;;;;21.64;42.37;101584.50;6156776;23;19923;-79
2022/06/01 10:47:43;;;;;;;;;;;;;;;21.65;42.39;101585.38;6156926;23;19991;-79
2022/06/01 10:50:17;;;;;;;;;;;;;;;21.65;42.11;101585.38;6130667;23;19963;-79
2022/06/01 10:52:46;;;;;;;;;;;;;;;21.67;42.30;101588.84;6157192;23;19912;-79
2022/06/01 10:55:12;;;;;;;;;;;;;;;21.70;42.24;101586.16;6130663;23;20426;-79
2022/06/01 10:57:39;;;;;;;;;;;;;;;21.72;42.28;101581.78;6130722;23;19928;-79
2022/06/01 11:00:10;;;;;;;;;;;;;;;21.72;42.06;101582.63;6130541;23;19909;-79
2022/06/01 11:02:47;;;;;;;;;;;;;;;21.71;42.01;101588.78;6132576;23;20288;-81
2022/06/01 11:05:23;;;;;;;;;;;;;;;21.71;42.24;101594.00;6132967;23;19909;-82
2022/06/01 11:08:00;;;;;;;;;;;;;;;21.71;42.25;101590.50;6157519;23;19909;-82
2022/06/01 11:10:30;;;;;;;;;;;;;;;21.71;42.07;101594.00;6158893;23;19916;-82
2022/06/01 11:13:18;;;;;;;;;;;;;;;21.71;42.15;101583.53;6132704;23;19915;-82
2022/06/01 11:16:03;;;;;;;;;;;;;;;21.71;42.03;101596.63;6133076;23;19909;-83
2022/06/01 11:18:31;;;;;;;;;;;;;;;21.72;42.02;101597.50;6132921;23;19987;-82
2022/06/01 11:20:57;;;;;;;;;;;;;;;21.72;41.99;101598.34;6132525;23;20282;-83
2022/06/01 11:23:22;;;;;;;;;;;;;;;21.72;42.09;101592.25;6159210;23;19913;-83
2022/06/01 11:26:10;;;;;;;;;;;;;;;21.72;41.96;101603.59;6159111;23;19908;-84
2022/06/01 11:28:41;;;;;;;;;;;;;;;21.71;41.99;101604.50;6159061;23;19912;-82
2022/06/01 11:31:12;;;;;;;;;;;;;;;21.71;41.97;101614.06;6132605;23;19912;-83
2022/06/01 11:33:39;;;;;;;;;;;;;;;21.71;42.03;101603.59;6157405;23;19940;-83
2022/06/01 11:36:23;;;;;;;;;;;;;;;21.71;42.02;101601.88;6132677;23;19947;-83
2022/06/01 11:38:54;;;;;;;;;;;;;;;21.71;42.02;101604.50;6133255;23;19915;-82
2022/06/01 11:41:23;;;;;;;;;;;;;;;21.72;42.00;101610.59;6158697;23;19919;-82
2022/06/01 11:43:59;;;;;;;;;;;;;;;21.73;42.13;101615.81;6132435;23;19916;-82
2022/06/01 11:46:35;;;;;;;;;;;;;;;21.73;42.15;101613.19;6132572;23;19948;-82
2022/06/01 11:49:09;;;;;;;;;;;;;;;21.73;41.94;101615.81;6132539;23;20290;-82
2022/06/01 11:51:37;;;;;;;;;;;;;;;21.74;42.09;101620.16;6132480;23;19908;-81
2022/06/01 11:54:09;;;;;;;;;;;;;;;21.75;41.91;101616.66;6132231;23;19980;-82
2022/06/01 11:56:35;;;;;;;;;;;;;;;21.76;41.82;101617.50;6132234;23;19908;-81
2022/06/01 11:59:24;;;;;;;;;;;;;;;21.75;41.86;101616.66;6132412;23;19919;-81
2022/06/01 12:02:01;;;;;;;;;;;;;;;21.75;41.76;101627.13;6120353;23;20387;-82
2022/06/01 12:04:39;;;;;;;;;;;;;;;21.75;41.75;101634.09;6132147;23;19992;-82
2022/06/01 12:07:11;;;;;;;;;;;;;;;21.75;41.82;101626.25;6132296;23;20344;-83
2022/06/01 12:09:50;;;;;;;;;;;;;;;21.75;41.97;101628.88;6132488;23;19909;-81
2022/06/01 12:12:23;;;;;;;;;;;;;;;21.75;41.94;101629.75;6156631;23;19916;-83
2022/06/01 12:14:56;;;;;;;;;;;;;;;21.75;41.89;101640.25;6132427;23;20336;-83
2022/06/01 12:17:27;;;;;;;;;;;;;;;21.74;41.92;101627.16;6132065;23;19916;-82
2022/06/01 12:20:10;;;;;;;;;;;;;;;21.74;41.88;101637.63;6159402;23;19959;-81
2022/06/01 12:28:35;;;;;;;;;;;;;;;21.73;42.06;101636.78;6158291;23;20249;-82
2022/06/01 12:31:11;;;;;;;;;;;;;;;21.72;42.08;101640.25;6133441;23;19920;-83
2022/06/01 12:33:55;;;;;;;;;;;;;;;21.73;41.97;101639.38;6158264;23;19963;-82
2022/06/01 12:36:21;;;;;;;;;;;;;;;21.73;42.01;101647.25;6132384;23;19940;-82
2022/06/01 12:38:47;;;;;;;;;;;;;;;21.74;41.92;101645.50;6132084;23;19912;-79
2022/06/01 12:41:12;;;;;;;;;;;;;;;21.74;41.88;101643.72;6157551;23;19991;-78
2022/06/01 12:43:38;;;;;;;;;;;;;;;21.74;42.02;101645.50;6157559;23;19920;-78
2022/06/01 12:46:17;;;;;;;;;;;;;;;21.73;41.88;101644.63;6107352;23;19916;-78
2022/06/01 12:48:43;;;;;;;;;;;;;;;21.73;42.08;101648.97;6131631;23;19909;-78
2022/06/01 12:51:09;;;;;;;;;;;;;;;21.74;41.91;101648.97;6132069;23;19920;-79
2022/06/01 12:53:44;;;;;;;;;;;;;;;21.73;42.12;101655.09;6156072;23;19909;-79
2022/06/01 12:56:13;;;;;;;;;;;;;;;21.73;42.01;101649.88;6131483;23;19909;-79
2022/06/01 12:58:40;;;;;;;;;;;;;;;21.75;41.97;101642.84;6158146;23;19913;-79
2022/06/01 13:01:05;;;;;;;;;;;;;;;21.75;42.11;101645.47;6157719;23;19961;-79
2022/06/01 13:03:33;;;;;;;;;;;;;;;21.76;42.14;101646.34;6131760;23;19913;-80
2022/06/01 13:06:00;;;;;;;;;;;;;;;21.77;42.06;101645.44;6156214;23;19947;-80
2022/06/01 13:08:27;;;;;;;;;;;;;;;21.77;42.28;101648.06;6158217;23;19983;-79
2022/06/01 13:10:52;;;;;;;;;;;;;;;21.75;42.41;101645.47;6131472;23;19909;-79
2022/06/01 13:13:22;;;;;;;;;;;;;;;21.76;42.46;101652.44;6157830;23;19913;-79
2022/06/01 13:15:57;;;;;;;;;;;;;;;21.76;42.32;101659.44;6157577;23;19909;-79